createdAt,value
2022-11-29T00:00:03.176Z,7.20
2022-11-29T00:02:41.326Z,6.28
2022-11-29T00:05:10.492Z,6.72
2022-11-29T00:07:39.069Z,6.22
2022-11-29T00:10:10.862Z,6.20
2022-11-29T00:12:39.632Z,6.50
2022-11-29T00:15:08.792Z,6.05
2022-11-29T00:17:37.937Z,6.15
2022-11-29T00:20:08.007Z,6.40
2022-11-29T00:22:36.534Z,6.13
2022-11-29T00:25:05.838Z,6.65
2022-11-29T00:27:35.947Z,6.30
2022-11-29T00:30:04.957Z,6.70
2022-11-29T00:32:33.599Z,5.93
2022-11-29T00:35:08.179Z,5.90
2022-11-29T00:37:38.227Z,5.55
2022-11-29T00:40:08.860Z,5.85
2022-11-29T00:42:39.029Z,5.78
2022-11-29T00:45:08.559Z,5.43
2022-11-29T00:47:37.325Z,5.65
2022-11-29T00:50:07.664Z,5.43
2022-11-29T00:52:36.295Z,5.40
2022-11-29T00:55:04.952Z,5.03
2022-11-29T00:57:33.815Z,5.28
2022-11-29T01:00:04.202Z,5.47
2022-11-29T01:02:32.863Z,5.63
2022-11-29T01:05:01.399Z,6.10
2022-11-29T01:07:30.297Z,5.28
2022-11-29T01:09:59.049Z,4.43
2022-11-29T01:12:27.711Z,5.50
2022-11-29T01:14:56.242Z,5.45
2022-11-29T01:17:26.292Z,5.82
2022-11-29T01:19:54.971Z,5.35
2022-11-29T01:22:23.546Z,5.30
2022-11-29T01:24:52.012Z,5.35
2022-11-29T01:27:20.597Z,5.07
2022-11-29T01:29:49.102Z,5.32
2022-11-29T01:32:17.674Z,4.53
2022-11-29T01:34:47.660Z,4.20
2022-11-29T01:37:16.207Z,4.70
2022-11-29T01:39:45.008Z,4.82
2022-11-29T01:42:13.740Z,4.30
2022-11-29T01:45:29.773Z,4.40
2022-11-29T01:47:59.521Z,3.70
2022-11-29T01:50:29.782Z,4.75
2022-11-29T01:52:59.151Z,4.77
2022-11-29T01:55:28.158Z,4.25
2022-11-29T01:57:56.996Z,4.53
2022-11-29T02:00:25.731Z,4.30
2022-11-29T02:02:59.841Z,5.07
2022-11-29T02:05:30.078Z,4.10
2022-11-29T02:08:00.510Z,4.20
2022-11-29T02:10:46.420Z,4.18
2022-11-29T02:13:25.288Z,4.13
2022-11-29T02:16:01.209Z,4.05
2022-11-29T02:18:44.674Z,3.58
2022-11-29T02:21:28.886Z,4.25
2022-11-29T02:24:18.503Z,4.57
2022-11-29T02:27:19.231Z,4.10
2022-11-29T02:30:24.487Z,4.18
2022-11-29T02:33:24.990Z,3.05
2022-11-29T02:36:20.459Z,3.83
2022-11-29T02:39:14.252Z,3.30
2022-11-29T02:42:04.846Z,3.60
2022-11-29T02:45:04.523Z,4.38
2022-11-29T02:47:46.083Z,4.28
2022-11-29T02:50:22.125Z,4.35
2022-11-29T02:53:02.572Z,3.60
2022-11-29T02:55:38.876Z,4.32
2022-11-29T02:58:18.463Z,3.83
2022-11-29T03:00:57.059Z,4.47
2022-11-29T03:03:33.271Z,3.72
2022-11-29T03:06:12.824Z,4.38
2022-11-29T03:08:51.761Z,4.43
2022-11-29T03:11:30.524Z,3.78
2022-11-29T03:14:15.426Z,4.03
2022-11-29T03:16:53.000Z,3.55
2022-11-29T03:19:41.819Z,3.60
2022-11-29T03:22:26.096Z,3.78
2022-11-29T03:25:02.249Z,3.67
2022-11-29T03:27:40.610Z,3.60
2022-11-29T03:30:11.987Z,3.40
2022-11-29T03:32:49.296Z,3.13
2022-11-29T03:35:23.467Z,3.58
2022-11-29T03:38:01.051Z,3.08
2022-11-29T03:40:35.361Z,3.42
2022-11-29T03:43:09.136Z,3.38
2022-11-29T03:45:45.060Z,3.60
2022-11-29T03:48:17.271Z,3.00
2022-11-29T03:50:51.713Z,3.03
2022-11-29T03:53:34.399Z,3.03
2022-11-29T03:56:04.749Z,3.10
2022-11-29T03:58:55.060Z,3.08
2022-11-29T04:02:07.024Z,2.78
2022-11-29T04:05:13.892Z,2.58
2022-11-29T04:08:02.746Z,2.65
2022-11-29T04:11:00.220Z,3.00
2022-11-29T04:13:59.266Z,2.85
2022-11-29T04:17:19.010Z,2.80
2022-11-29T04:20:33.830Z,2.83
2022-11-29T04:23:53.341Z,2.90
2022-11-29T04:26:56.046Z,2.70
2022-11-29T04:29:56.321Z,2.35
2022-11-29T04:33:00.840Z,2.53
2022-11-29T04:35:45.244Z,2.80
2022-11-29T04:38:46.224Z,2.45
2022-11-29T04:41:38.283Z,2.53
2022-11-29T04:44:43.276Z,2.58
2022-11-29T04:47:33.481Z,2.30
2022-11-29T04:50:21.716Z,3.17
2022-11-29T04:53:14.230Z,3.10
2022-11-29T04:55:50.039Z,2.75
2022-11-29T04:58:29.724Z,3.92
2022-11-29T05:01:05.659Z,3.33
2022-11-29T05:03:45.729Z,2.60
2022-11-29T05:06:29.132Z,2.97
2022-11-29T05:09:11.606Z,2.25
2022-11-29T05:11:58.104Z,2.53
2022-11-29T05:14:42.496Z,2.53
2022-11-29T05:17:33.308Z,2.22
2022-11-29T05:20:17.322Z,2.50
2022-11-29T05:22:54.284Z,2.67
2022-11-29T05:25:39.165Z,2.92
2022-11-29T05:28:14.746Z,2.70
2022-11-29T05:31:06.934Z,2.83
2022-11-29T05:34:12.306Z,2.95
2022-11-29T05:36:51.006Z,2.08
2022-11-29T05:39:38.746Z,2.20
2022-11-29T05:42:21.722Z,2.75
2022-11-29T05:44:58.415Z,2.38
2022-11-29T05:47:36.646Z,2.92
2022-11-29T05:50:16.642Z,2.10
2022-11-29T05:52:55.309Z,2.22
2022-11-29T05:55:36.801Z,2.40
2022-11-29T05:58:14.622Z,2.35
2022-11-29T06:00:52.683Z,2.53
2022-11-29T06:03:31.589Z,2.67
2022-11-29T06:06:08.444Z,2.30
2022-11-29T06:08:44.819Z,2.75
2022-11-29T06:11:19.756Z,2.65
2022-11-29T06:14:03.357Z,2.63
2022-11-29T06:16:43.999Z,2.30
2022-11-29T06:19:53.082Z,2.50
2022-11-29T06:23:10.684Z,1.95
2022-11-29T06:26:04.339Z,2.40
2022-11-29T06:28:48.797Z,2.63
2022-11-29T06:31:22.932Z,2.20
2022-11-29T06:34:00.340Z,2.22
2022-11-29T06:36:35.982Z,2.50
2022-11-29T06:39:07.024Z,2.20
2022-11-29T06:44:05.216Z,2.85
2022-11-29T06:46:48.638Z,2.50
2022-11-29T06:49:28.773Z,3.40
2022-11-29T06:52:13.244Z,2.88
2022-11-29T06:55:05.199Z,2.60
2022-11-29T06:57:47.706Z,2.90
2022-11-29T07:00:24.689Z,2.88
2022-11-29T07:03:12.546Z,3.17
2022-11-29T07:05:43.669Z,2.65
2022-11-29T07:08:19.007Z,2.97
2022-11-29T07:10:53.468Z,3.10
2022-11-29T07:13:27.127Z,3.08
2022-11-29T07:16:05.372Z,3.80
2022-11-29T07:18:46.208Z,3.00
2022-11-29T07:21:25.186Z,3.20
2022-11-29T07:24:03.861Z,3.92
2022-11-29T07:26:59.685Z,3.58
2022-11-29T07:29:39.319Z,3.22
2022-11-29T07:32:17.856Z,3.35
2022-11-29T07:34:59.728Z,3.05
2022-11-29T07:37:38.527Z,4.00
2022-11-29T07:40:19.010Z,4.00
2022-11-29T07:43:00.733Z,4.13
2022-11-29T07:45:35.140Z,4.03
2022-11-29T07:48:18.875Z,3.95
2022-11-29T07:50:53.529Z,3.30
2022-11-29T07:53:24.562Z,3.33
2022-11-29T07:55:55.708Z,3.50
2022-11-29T07:58:26.621Z,4.13
2022-11-29T08:01:01.205Z,3.70
2022-11-29T08:03:30.961Z,3.15
2022-11-29T08:06:00.000Z,3.33
2022-11-29T08:08:29.641Z,4.20
2022-11-29T08:11:00.341Z,3.88
2022-11-29T08:13:34.532Z,3.53
2022-11-29T08:16:06.410Z,4.05
2022-11-29T08:18:35.237Z,4.43
2022-11-29T08:21:07.754Z,3.90
2022-11-29T08:23:39.033Z,4.28
2022-11-29T08:26:08.032Z,4.30
2022-11-29T08:28:45.687Z,3.83
2022-11-29T08:31:14.872Z,3.03
2022-11-29T08:33:47.988Z,3.55
2022-11-29T08:36:18.606Z,4.07
2022-11-29T08:38:47.575Z,3.35
2022-11-29T08:41:18.546Z,3.20
2022-11-29T08:43:48.811Z,3.47
2022-11-29T08:46:18.998Z,2.15
2022-11-29T08:48:47.746Z,2.60
2022-11-29T08:51:16.902Z,2.63
2022-11-29T08:53:46.427Z,3.10
2022-11-29T08:59:08.821Z,2.35
2022-11-29T09:01:37.370Z,2.55
2022-11-29T09:04:07.892Z,2.40
2022-11-29T09:06:41.002Z,2.10
2022-11-29T09:09:10.020Z,2.40
2022-11-29T09:11:38.792Z,2.00
2022-11-29T09:14:12.390Z,1.88
2022-11-29T09:16:41.137Z,2.13
2022-11-29T09:19:09.890Z,2.20
2022-11-29T09:21:38.534Z,2.30
2022-11-29T09:24:08.322Z,2.67
2022-11-29T09:26:38.241Z,2.88
2022-11-29T09:29:09.958Z,2.95
2022-11-29T09:31:39.288Z,2.42
2022-11-29T09:34:08.009Z,2.95
2022-11-29T09:36:36.581Z,3.05
2022-11-29T09:39:05.247Z,2.75
2022-11-29T09:42:15.547Z,2.22
2022-11-29T09:44:57.467Z,3.13
2022-11-29T09:47:43.320Z,2.83
2022-11-29T09:50:24.719Z,2.83
2022-11-29T09:52:58.742Z,3.00
2022-11-29T09:55:47.869Z,2.28
2022-11-29T09:58:22.630Z,2.55
2022-11-29T10:00:56.575Z,3.08
2022-11-29T10:03:30.023Z,2.80
2022-11-29T10:06:03.279Z,3.42
2022-11-29T10:08:37.750Z,2.53
2022-11-29T10:11:20.628Z,2.72
2022-11-29T10:13:53.507Z,3.35
2022-11-29T10:16:29.982Z,3.53
2022-11-29T10:19:06.225Z,3.63
2022-11-29T10:21:38.604Z,3.45
2022-11-29T10:24:14.958Z,3.15
2022-11-29T10:26:44.208Z,3.25
2022-11-29T10:29:15.589Z,3.00
2022-11-29T10:31:49.691Z,3.13
2022-11-29T10:34:21.138Z,3.60
2022-11-29T10:36:51.921Z,3.15
2022-11-29T10:39:25.479Z,3.10
2022-11-29T10:41:58.579Z,3.28
2022-11-29T10:44:28.227Z,2.80
2022-11-29T10:46:59.691Z,3.10
2022-11-29T10:49:31.539Z,2.70
2022-11-29T10:52:00.106Z,3.03
2022-11-29T10:54:38.469Z,3.20
2022-11-29T10:57:15.652Z,3.20
2022-11-29T11:00:01.047Z,2.88
2022-11-29T11:02:31.998Z,3.95
2022-11-29T11:05:01.106Z,3.15
2022-11-29T11:07:33.563Z,3.25
2022-11-29T11:10:02.931Z,3.25
2022-11-29T11:12:33.592Z,3.00
2022-11-29T11:15:28.870Z,3.30
2022-11-29T11:18:01.041Z,2.75
2022-11-29T11:20:31.872Z,3.40
2022-11-29T11:23:03.716Z,3.33
2022-11-29T11:25:35.469Z,2.95
2022-11-29T11:28:21.446Z,2.97
2022-11-29T11:30:55.915Z,2.78
2022-11-29T11:33:28.581Z,2.97
2022-11-29T11:36:06.459Z,3.08
2022-11-29T11:38:35.959Z,2.42
2022-11-29T11:41:08.953Z,2.63
2022-11-29T11:43:37.806Z,2.45
2022-11-29T11:46:08.304Z,2.58
2022-11-29T11:48:42.568Z,2.50
2022-11-29T11:51:23.587Z,2.67
2022-11-29T11:53:56.510Z,2.47
2022-11-29T11:56:27.959Z,2.45
2022-11-29T11:58:59.358Z,2.53
2022-11-29T12:01:31.999Z,3.17
2022-11-29T12:04:07.492Z,3.05
2022-11-29T12:06:52.628Z,2.67
2022-11-29T12:09:37.523Z,2.78
2022-11-29T12:12:15.259Z,2.25
2022-11-29T12:14:55.212Z,2.28
2022-11-29T12:17:31.529Z,2.33
2022-11-29T12:20:11.880Z,2.38
2022-11-29T12:22:48.310Z,2.67
2022-11-29T12:25:22.886Z,2.38
2022-11-29T12:27:52.193Z,2.10
2022-11-29T12:30:21.321Z,2.55
2022-11-29T12:33:07.932Z,2.05
2022-11-29T12:36:00.350Z,2.28
2022-11-29T12:38:54.133Z,2.10
2022-11-29T12:41:33.813Z,1.45
2022-11-29T12:44:14.053Z,2.00
2022-11-29T12:47:02.096Z,2.85
2022-11-29T12:49:48.593Z,3.05
2022-11-29T12:52:27.168Z,8.45
2022-11-29T12:55:05.130Z,9.40
2022-11-29T12:57:41.191Z,6.30
2022-11-29T13:00:14.432Z,7.45
2022-11-29T13:02:54.394Z,3.72
2022-11-29T13:05:38.773Z,3.42
2022-11-29T13:08:23.987Z,2.30
2022-11-29T13:11:07.762Z,2.40
2022-11-29T13:13:41.000Z,2.65
2022-11-29T13:16:30.667Z,2.80
2022-11-29T13:19:03.861Z,2.55
2022-11-29T13:21:38.562Z,3.13
2022-11-29T13:24:13.786Z,2.58
2022-11-29T13:26:43.372Z,3.20
2022-11-29T13:29:17.223Z,3.17
2022-11-29T13:31:47.177Z,2.72
2022-11-29T13:34:21.166Z,3.03
2022-11-29T13:37:00.871Z,2.67
2022-11-29T13:39:43.148Z,2.78
2022-11-29T13:42:18.274Z,2.30
2022-11-29T13:44:54.597Z,2.35
2022-11-29T13:47:23.769Z,2.95
2022-11-29T13:50:02.514Z,2.15
2022-11-29T13:52:42.046Z,2.67
2022-11-29T13:55:31.579Z,2.85
2022-11-29T13:58:22.520Z,2.80
2022-11-29T14:00:53.212Z,3.08
2022-11-29T14:03:30.453Z,2.50
2022-11-29T14:06:11.912Z,3.08
2022-11-29T14:09:17.303Z,3.00
2022-11-29T14:11:46.307Z,3.63
2022-11-29T14:14:24.469Z,3.47
2022-11-29T14:16:56.987Z,3.45
2022-11-29T14:19:33.120Z,3.90
2022-11-29T14:22:30.507Z,3.88
2022-11-29T14:25:49.150Z,2.88
2022-11-29T14:28:30.357Z,3.25
2022-11-29T14:31:01.877Z,3.17
2022-11-29T14:33:57.868Z,2.85
2022-11-29T14:36:48.567Z,2.63
2022-11-29T14:39:29.309Z,2.72
2022-11-29T14:42:14.794Z,2.33
2022-11-29T14:44:51.410Z,2.60
2022-11-29T14:47:37.128Z,2.65
2022-11-29T14:50:09.993Z,2.97
2022-11-29T14:52:41.052Z,3.00
2022-11-29T14:55:32.085Z,3.15
2022-11-29T14:58:21.015Z,2.90
2022-11-29T15:01:10.891Z,2.17
2022-11-29T15:03:50.314Z,2.17
2022-11-29T15:06:27.513Z,2.42
2022-11-29T15:09:04.161Z,2.45
2022-11-29T15:11:50.986Z,2.10
2022-11-29T15:14:32.528Z,2.35
2022-11-29T15:17:17.311Z,2.60
2022-11-29T15:20:19.089Z,2.13
2022-11-29T15:22:52.588Z,2.60
2022-11-29T15:25:23.326Z,1.70
2022-11-29T15:27:53.829Z,2.30
2022-11-29T15:30:29.961Z,2.40
2022-11-29T15:33:01.949Z,2.33
2022-11-29T15:35:31.131Z,2.53
2022-11-29T15:38:01.712Z,2.75
2022-11-29T15:40:35.788Z,2.80
2022-11-29T15:43:17.049Z,2.08
2022-11-29T15:48:22.219Z,2.53
2022-11-29T15:50:56.101Z,3.10
2022-11-29T15:53:28.888Z,2.67
2022-11-29T15:55:59.827Z,2.53
2022-11-29T15:58:32.551Z,2.70
2022-11-29T16:01:06.392Z,2.85
2022-11-29T16:03:39.647Z,2.33
2022-11-29T16:06:22.392Z,2.78
2022-11-29T16:08:53.550Z,2.58
2022-11-29T16:11:30.211Z,2.88
2022-11-29T16:14:04.889Z,3.13
2022-11-29T16:16:35.782Z,2.83
2022-11-29T16:19:22.849Z,2.90
2022-11-29T16:22:02.592Z,3.13
2022-11-29T16:24:35.147Z,2.92
2022-11-29T16:27:04.430Z,3.10
2022-11-29T16:29:37.459Z,3.70
2022-11-29T16:32:26.006Z,3.65
2022-11-29T16:34:56.911Z,3.90
2022-11-29T16:37:26.789Z,3.47
2022-11-29T16:40:00.897Z,3.38
2022-11-29T16:42:31.433Z,3.33
2022-11-29T16:45:25.550Z,3.28
2022-11-29T16:47:58.945Z,3.65
2022-11-29T16:50:30.566Z,3.28
2022-11-29T16:53:42.574Z,3.22
2022-11-29T16:56:13.853Z,3.75
2022-11-29T17:01:33.992Z,3.45
2022-11-29T17:04:02.572Z,3.10
2022-11-29T17:06:34.032Z,3.85
2022-11-29T17:09:02.834Z,3.63
2022-11-29T17:11:31.401Z,3.97
2022-11-29T17:14:00.104Z,3.42
2022-11-29T17:16:28.804Z,3.40
2022-11-29T17:18:57.360Z,3.75
2022-11-29T17:21:28.071Z,3.28
2022-11-29T17:23:58.034Z,3.75
2022-11-29T17:26:26.557Z,4.07
2022-11-29T17:28:55.095Z,3.88
2022-11-29T17:31:25.619Z,3.95
2022-11-29T17:33:54.412Z,4.32
2022-11-29T17:36:23.272Z,3.65
2022-11-29T17:38:52.071Z,3.67
2022-11-29T17:41:24.388Z,3.72
2022-11-29T17:43:53.895Z,3.53
2022-11-29T17:46:24.641Z,3.88
2022-11-29T17:48:53.991Z,3.20
2022-11-29T17:54:13.541Z,3.50
2022-11-29T17:56:43.614Z,3.40
2022-11-29T17:59:12.321Z,3.97
2022-11-29T18:01:41.109Z,3.05
2022-11-29T18:04:09.905Z,3.42
2022-11-29T18:06:40.414Z,3.35
2022-11-29T18:09:11.403Z,3.47
2022-11-29T18:11:48.708Z,3.50
2022-11-29T18:14:20.467Z,3.05
2022-11-29T18:16:49.122Z,3.15
2022-11-29T18:19:20.096Z,3.03
2022-11-29T18:21:49.164Z,3.22
2022-11-29T18:24:17.867Z,3.42
2022-11-29T18:26:48.177Z,3.20
2022-11-29T18:29:16.914Z,3.45
2022-11-29T18:31:47.063Z,3.75
2022-11-29T18:34:16.827Z,4.05
2022-11-29T18:36:47.100Z,3.38
2022-11-29T18:39:17.297Z,3.75
2022-11-29T18:41:48.936Z,3.20
2022-11-29T18:44:21.841Z,3.05
2022-11-29T18:46:50.730Z,3.65
2022-11-29T18:49:19.951Z,3.80
2022-11-29T18:51:49.817Z,3.72
2022-11-29T18:54:22.766Z,3.47
2022-11-29T18:56:53.091Z,3.85
2022-11-29T18:59:23.744Z,3.58
2022-11-29T19:01:52.282Z,3.85
2022-11-29T19:04:22.186Z,3.55
2022-11-29T19:06:51.145Z,3.83
2022-11-29T19:09:22.251Z,3.40
2022-11-29T19:14:22.586Z,3.10
2022-11-29T19:16:51.827Z,3.55
2022-11-29T19:19:20.790Z,3.92
2022-11-29T19:21:49.644Z,4.03
2022-11-29T19:24:19.824Z,4.28
2022-11-29T19:26:50.289Z,4.38
2022-11-29T19:29:20.545Z,4.55
2022-11-29T19:31:50.583Z,4.28
2022-11-29T19:34:19.286Z,3.83
2022-11-29T19:36:47.867Z,4.22
2022-11-29T19:39:18.264Z,4.28
2022-11-29T19:41:48.469Z,4.85
2022-11-29T19:44:26.538Z,4.93
2022-11-29T19:46:57.917Z,4.80
2022-11-29T19:49:26.495Z,3.92
2022-11-29T19:51:55.051Z,3.85
2022-11-29T19:54:23.825Z,4.75
2022-11-29T19:56:52.425Z,4.22
2022-11-29T19:59:22.434Z,3.97
2022-11-29T20:04:20.865Z,5.13
2022-11-29T20:06:51.566Z,4.70
2022-11-29T20:09:20.227Z,3.88
2022-11-29T20:11:48.660Z,4.50
2022-11-29T20:14:17.165Z,4.70
2022-11-29T20:16:47.109Z,4.80
2022-11-29T20:19:18.007Z,4.88
2022-11-29T20:21:48.951Z,4.90
2022-11-29T20:24:19.678Z,4.05
2022-11-29T20:26:49.235Z,4.82
2022-11-29T20:29:19.487Z,4.65
2022-11-29T20:31:50.987Z,4.93
2022-11-29T20:34:20.875Z,5.10
2022-11-29T20:37:11.859Z,4.78
2022-11-29T20:39:47.133Z,4.82
2022-11-29T20:42:37.725Z,4.57
2022-11-29T20:45:08.806Z,4.80
2022-11-29T20:50:19.427Z,4.35
2022-11-29T20:53:00.781Z,4.13
2022-11-29T20:55:29.465Z,5.20
2022-11-29T20:57:57.968Z,4.90
2022-11-29T21:00:26.659Z,4.80
2022-11-29T21:02:56.789Z,5.00
2022-11-29T21:05:25.390Z,5.40
2022-11-29T21:07:53.952Z,5.38
2022-11-29T21:10:22.780Z,4.43
2022-11-29T21:12:51.831Z,5.88
2022-11-29T21:15:21.297Z,5.28
2022-11-29T21:17:50.456Z,5.55
2022-11-29T21:20:24.259Z,4.47
2022-11-29T21:22:59.864Z,5.05
2022-11-29T21:25:39.097Z,5.78
2022-11-29T21:28:12.172Z,5.45
2022-11-29T21:30:41.421Z,6.00
2022-11-29T21:33:11.454Z,5.53
2022-11-29T21:35:42.255Z,5.00
2022-11-29T21:38:16.253Z,5.13
2022-11-29T21:40:45.090Z,4.40
2022-11-29T21:43:13.632Z,5.28
2022-11-29T21:45:42.227Z,4.97
2022-11-29T21:48:31.052Z,5.80
2022-11-29T21:51:01.174Z,5.00
2022-11-29T21:53:29.782Z,5.22
2022-11-29T21:55:58.937Z,5.10
2022-11-29T21:58:27.871Z,5.32
2022-11-29T22:00:56.365Z,5.65
2022-11-29T22:03:25.120Z,5.32
2022-11-29T22:05:53.591Z,5.30
2022-11-29T22:08:23.573Z,5.63
2022-11-29T22:11:01.768Z,5.65
2022-11-29T22:13:30.454Z,5.05
2022-11-29T22:16:07.115Z,4.93
2022-11-29T22:18:36.465Z,4.85
2022-11-29T22:21:06.880Z,4.88
2022-11-29T22:23:36.972Z,4.70
2022-11-29T22:26:07.145Z,6.13
2022-11-29T22:28:36.657Z,4.05
2022-11-29T22:31:07.959Z,5.10
2022-11-29T22:33:37.205Z,4.65
2022-11-29T22:36:06.591Z,5.35
2022-11-29T22:38:37.350Z,5.35
2022-11-29T22:41:07.838Z,5.72
2022-11-29T22:43:37.248Z,5.55
2022-11-29T22:46:07.588Z,5.15
2022-11-29T22:48:38.914Z,5.18
2022-11-29T22:51:09.692Z,6.00
2022-11-29T22:53:41.549Z,4.97
2022-11-29T22:56:12.919Z,5.40
2022-11-29T22:58:41.534Z,5.93
2022-11-29T23:01:14.251Z,5.03
2022-11-29T23:03:46.055Z,4.63
2022-11-29T23:06:16.719Z,5.50
2022-11-29T23:08:48.659Z,5.35
2022-11-29T23:11:19.032Z,5.80
2022-11-29T23:13:48.002Z,5.18
2022-11-29T23:16:19.215Z,5.28
2022-11-29T23:18:48.710Z,5.78
2022-11-29T23:21:19.016Z,5.53
2022-11-29T23:23:55.790Z,5.53
2022-11-29T23:26:27.644Z,5.85
2022-11-29T23:28:56.796Z,5.18
2022-11-29T23:31:25.711Z,5.65
2022-11-29T23:33:54.546Z,5.05
2022-11-29T23:36:23.298Z,5.65
2022-11-29T23:38:53.355Z,4.97
2022-11-29T23:41:22.330Z,6.50
2022-11-29T23:43:51.005Z,5.50
2022-11-29T23:46:21.102Z,5.45
2022-11-29T23:48:49.896Z,6.20
2022-11-29T23:51:18.921Z,6.80
2022-11-29T23:53:48.153Z,5.57
2022-11-29T23:56:19.101Z,5.95
2022-11-29T23:58:47.901Z,5.18
